sensor_id;sensor_type;location;lat;lon;timestamp;P1;durP1;ratioP1;P2;durP2;ratioP2
43226;SDS011;28839;52.404;9.808;2022-10-16T00:02:54;4.78;;;1.58;;
43226;SDS011;28839;52.404;9.808;2022-10-16T00:09:49;4.53;;;1.40;;
43226;SDS011;28839;52.404;9.808;2022-10-16T00:16:43;4.37;;;1.45;;
43226;SDS011;28839;52.404;9.808;2022-10-16T00:23:37;3.77;;;1.70;;
43226;SDS011;28839;52.404;9.808;2022-10-16T00:30:33;1.60;;;1.02;;
43226;SDS011;28839;52.404;9.808;2022-10-16T00:37:26;2.50;;;1.20;;
43226;SDS011;28839;52.404;9.808;2022-10-16T00:51:43;3.17;;;2.33;;
43226;SDS011;28839;52.404;9.808;2022-10-16T00:58:39;3.42;;;1.87;;
43226;SDS011;28839;52.404;9.808;2022-10-16T01:05:35;2.10;;;1.87;;
43226;SDS011;28839;52.404;9.808;2022-10-16T01:12:38;5.35;;;1.90;;
43226;SDS011;28839;52.404;9.808;2022-10-16T01:19:39;7.78;;;1.65;;
43226;SDS011;28839;52.404;9.808;2022-10-16T01:27:01;2.75;;;1.35;;
43226;SDS011;28839;52.404;9.808;2022-10-16T01:34:00;2.37;;;1.55;;
43226;SDS011;28839;52.404;9.808;2022-10-16T01:40:59;2.72;;;1.50;;
43226;SDS011;28839;52.404;9.808;2022-10-16T01:48:01;5.28;;;1.60;;
43226;SDS011;28839;52.404;9.808;2022-10-16T01:54:59;8.65;;;3.78;;
43226;SDS011;28839;52.404;9.808;2022-10-16T02:01:58;5.40;;;2.70;;
43226;SDS011;28839;52.404;9.808;2022-10-16T02:08:58;6.20;;;2.80;;
43226;SDS011;28839;52.404;9.808;2022-10-16T02:15:52;6.28;;;3.25;;
43226;SDS011;28839;52.404;9.808;2022-10-16T02:22:46;4.30;;;2.10;;
43226;SDS011;28839;52.404;9.808;2022-10-16T02:29:45;4.18;;;1.80;;
43226;SDS011;28839;52.404;9.808;2022-10-16T02:36:42;7.47;;;2.50;;
43226;SDS011;28839;52.404;9.808;2022-10-16T02:43:37;6.35;;;2.83;;
43226;SDS011;28839;52.404;9.808;2022-10-16T02:50:33;10.38;;;5.05;;
43226;SDS011;28839;52.404;9.808;2022-10-16T02:57:27;6.22;;;3.70;;
43226;SDS011;28839;52.404;9.808;2022-10-16T03:04:21;4.83;;;2.77;;
43226;SDS011;28839;52.404;9.808;2022-10-16T03:11:16;7.70;;;3.97;;
43226;SDS011;28839;52.404;9.808;2022-10-16T03:18:10;4.12;;;2.35;;
43226;SDS011;28839;52.404;9.808;2022-10-16T03:25:04;4.70;;;2.83;;
43226;SDS011;28839;52.404;9.808;2022-10-16T03:32:00;2.90;;;2.45;;
43226;SDS011;28839;52.404;9.808;2022-10-16T03:38:54;7.32;;;2.62;;
43226;SDS011;28839;52.404;9.808;2022-10-16T03:45:49;5.87;;;3.30;;
43226;SDS011;28839;52.404;9.808;2022-10-16T03:52:45;5.53;;;3.22;;
43226;SDS011;28839;52.404;9.808;2022-10-16T03:59:39;11.50;;;3.08;;
43226;SDS011;28839;52.404;9.808;2022-10-16T04:06:33;6.43;;;2.65;;
43226;SDS011;28839;52.404;9.808;2022-10-16T04:13:28;7.97;;;2.78;;
43226;SDS011;28839;52.404;9.808;2022-10-16T04:20:22;4.35;;;2.75;;
43226;SDS011;28839;52.404;9.808;2022-10-16T04:27:16;5.45;;;2.87;;
43226;SDS011;28839;52.404;9.808;2022-10-16T04:34:11;4.53;;;2.75;;
43226;SDS011;28839;52.404;9.808;2022-10-16T04:41:05;6.22;;;3.05;;
43226;SDS011;28839;52.404;9.808;2022-10-16T04:47:59;7.07;;;3.37;;
43226;SDS011;28839;52.404;9.808;2022-10-16T04:54:54;7.20;;;3.37;;
43226;SDS011;28839;52.404;9.808;2022-10-16T05:01:52;5.45;;;3.42;;
43226;SDS011;28839;52.404;9.808;2022-10-16T05:08:46;7.20;;;3.42;;
43226;SDS011;28839;52.404;9.808;2022-10-16T05:15:41;5.75;;;3.47;;
43226;SDS011;28839;52.404;9.808;2022-10-16T05:22:35;6.57;;;3.25;;
43226;SDS011;28839;52.404;9.808;2022-10-16T05:29:29;7.32;;;3.80;;
43226;SDS011;28839;52.404;9.808;2022-10-16T05:36:25;7.18;;;4.35;;
43226;SDS011;28839;52.404;9.808;2022-10-16T05:43:19;9.60;;;4.75;;
43226;SDS011;28839;52.404;9.808;2022-10-16T05:50:13;5.53;;;4.15;;
43226;SDS011;28839;52.404;9.808;2022-10-16T05:57:08;6.47;;;5.07;;
43226;SDS011;28839;52.404;9.808;2022-10-16T06:04:02;7.10;;;6.50;;
43226;SDS011;28839;52.404;9.808;2022-10-16T06:11:02;18.43;;;16.97;;
43226;SDS011;28839;52.404;9.808;2022-10-16T06:17:58;10.32;;;8.60;;
43226;SDS011;28839;52.404;9.808;2022-10-16T06:24:52;4.82;;;3.58;;
43226;SDS011;28839;52.404;9.808;2022-10-16T06:31:45;5.95;;;3.20;;
43226;SDS011;28839;52.404;9.808;2022-10-16T06:38:41;6.47;;;3.63;;
43226;SDS011;28839;52.404;9.808;2022-10-16T06:45:35;3.08;;;2.78;;
43226;SDS011;28839;52.404;9.808;2022-10-16T06:52:29;4.03;;;3.37;;
43226;SDS011;28839;52.404;9.808;2022-10-16T06:59:24;2.30;;;2.10;;
43226;SDS011;28839;52.404;9.808;2022-10-16T07:06:18;6.90;;;2.58;;
43226;SDS011;28839;52.404;9.808;2022-10-16T07:13:14;3.65;;;2.55;;
43226;SDS011;28839;52.404;9.808;2022-10-16T07:20:09;3.63;;;2.00;;
43226;SDS011;28839;52.404;9.808;2022-10-16T07:27:03;4.55;;;1.95;;
43226;SDS011;28839;52.404;9.808;2022-10-16T07:33:58;4.90;;;1.50;;
43226;SDS011;28839;52.404;9.808;2022-10-16T07:40:57;4.28;;;1.62;;
43226;SDS011;28839;52.404;9.808;2022-10-16T07:47:52;1.65;;;1.25;;
43226;SDS011;28839;52.404;9.808;2022-10-16T07:54:46;1.57;;;1.47;;
43226;SDS011;28839;52.404;9.808;2022-10-16T08:01:41;1.50;;;0.83;;
43226;SDS011;28839;52.404;9.808;2022-10-16T08:08:35;4.50;;;1.10;;
43226;SDS011;28839;52.404;9.808;2022-10-16T08:15:29;1.20;;;1.10;;
43226;SDS011;28839;52.404;9.808;2022-10-16T08:22:24;1.67;;;0.97;;
43226;SDS011;28839;52.404;9.808;2022-10-16T08:29:18;6.37;;;2.37;;
43226;SDS011;28839;52.404;9.808;2022-10-16T08:36:13;2.85;;;0.90;;
43226;SDS011;28839;52.404;9.808;2022-10-16T08:43:21;3.60;;;0.90;;
43226;SDS011;28839;52.404;9.808;2022-10-16T08:50:37;1.67;;;1.15;;
43226;SDS011;28839;52.404;9.808;2022-10-16T08:57:32;1.73;;;0.95;;
43226;SDS011;28839;52.404;9.808;2022-10-16T09:04:34;1.10;;;1.00;;
43226;SDS011;28839;52.404;9.808;2022-10-16T09:11:47;1.33;;;0.77;;
43226;SDS011;28839;52.404;9.808;2022-10-16T09:18:48;1.12;;;1.05;;
43226;SDS011;28839;52.404;9.808;2022-10-16T09:25:49;1.65;;;0.90;;
43226;SDS011;28839;52.404;9.808;2022-10-16T09:32:43;2.83;;;0.82;;
43226;SDS011;28839;52.404;9.808;2022-10-16T09:39:46;2.97;;;1.10;;
43226;SDS011;28839;52.404;9.808;2022-10-16T09:46:42;2.22;;;0.75;;
43226;SDS011;28839;52.404;9.808;2022-10-16T09:53:40;2.72;;;1.08;;
43226;SDS011;28839;52.404;9.808;2022-10-16T10:00:35;3.97;;;0.80;;
43226;SDS011;28839;52.404;9.808;2022-10-16T10:07:31;1.58;;;0.80;;
43226;SDS011;28839;52.404;9.808;2022-10-16T10:14:28;2.92;;;0.80;;
43226;SDS011;28839;52.404;9.808;2022-10-16T10:21:25;2.00;;;0.60;;
43226;SDS011;28839;52.404;9.808;2022-10-16T10:28:29;4.15;;;0.90;;
43226;SDS011;28839;52.404;9.808;2022-10-16T10:42:34;2.20;;;0.95;;
43226;SDS011;28839;52.404;9.808;2022-10-16T10:49:39;4.47;;;1.08;;
43226;SDS011;28839;52.404;9.808;2022-10-16T10:56:43;3.12;;;0.70;;
43226;SDS011;28839;52.404;9.808;2022-10-16T11:03:45;2.80;;;1.00;;
43226;SDS011;28839;52.404;9.808;2022-10-16T11:10:53;1.90;;;0.65;;
43226;SDS011;28839;52.404;9.808;2022-10-16T11:17:52;1.27;;;0.80;;
43226;SDS011;28839;52.404;9.808;2022-10-16T11:24:51;2.35;;;1.00;;
43226;SDS011;28839;52.404;9.808;2022-10-16T11:31:49;2.85;;;0.90;;
43226;SDS011;28839;52.404;9.808;2022-10-16T11:38:48;4.43;;;0.75;;
43226;SDS011;28839;52.404;9.808;2022-10-16T11:45:48;2.33;;;0.90;;
43226;SDS011;28839;52.404;9.808;2022-10-16T11:52:48;1.10;;;0.70;;
43226;SDS011;28839;52.404;9.808;2022-10-16T11:59:47;3.78;;;1.15;;
43226;SDS011;28839;52.404;9.808;2022-10-16T12:06:46;2.30;;;0.95;;
43226;SDS011;28839;52.404;9.808;2022-10-16T12:13:46;1.12;;;0.75;;
43226;SDS011;28839;52.404;9.808;2022-10-16T12:20:41;2.85;;;0.80;;
43226;SDS011;28839;52.404;9.808;2022-10-16T12:27:38;2.35;;;0.65;;
43226;SDS011;28839;52.404;9.808;2022-10-16T12:34:37;0.75;;;0.60;;
43226;SDS011;28839;52.404;9.808;2022-10-16T12:41:33;2.35;;;0.70;;
43226;SDS011;28839;52.404;9.808;2022-10-16T12:48:31;1.58;;;0.82;;
43226;SDS011;28839;52.404;9.808;2022-10-16T12:55:27;3.58;;;0.90;;
43226;SDS011;28839;52.404;9.808;2022-10-16T13:10:02;1.27;;;0.60;;
43226;SDS011;28839;52.404;9.808;2022-10-16T13:17:08;3.97;;;0.80;;
43226;SDS011;28839;52.404;9.808;2022-10-16T13:24:12;1.55;;;0.80;;
43226;SDS011;28839;52.404;9.808;2022-10-16T13:31:15;3.25;;;0.70;;
43226;SDS011;28839;52.404;9.808;2022-10-16T13:38:15;3.58;;;1.00;;
43226;SDS011;28839;52.404;9.808;2022-10-16T13:45:17;2.55;;;0.85;;
43226;SDS011;28839;52.404;9.808;2022-10-16T13:52:18;1.83;;;0.70;;
43226;SDS011;28839;52.404;9.808;2022-10-16T13:59:23;1.37;;;0.98;;
43226;SDS011;28839;52.404;9.808;2022-10-16T14:06:19;2.22;;;0.85;;
43226;SDS011;28839;52.404;9.808;2022-10-16T14:13:15;2.70;;;0.62;;
43226;SDS011;28839;52.404;9.808;2022-10-16T14:20:14;1.83;;;0.82;;
43226;SDS011;28839;52.404;9.808;2022-10-16T14:27:20;4.65;;;0.82;;
43226;SDS011;28839;52.404;9.808;2022-10-16T14:34:22;2.47;;;0.70;;
43226;SDS011;28839;52.404;9.808;2022-10-16T14:41:21;5.32;;;1.42;;
43226;SDS011;28839;52.404;9.808;2022-10-16T14:48:16;2.80;;;0.82;;
43226;SDS011;28839;52.404;9.808;2022-10-16T14:55:11;4.12;;;0.88;;
43226;SDS011;28839;52.404;9.808;2022-10-16T15:02:11;2.62;;;0.70;;
43226;SDS011;28839;52.404;9.808;2022-10-16T15:09:11;3.10;;;0.90;;
43226;SDS011;28839;52.404;9.808;2022-10-16T15:16:07;1.52;;;0.60;;
43226;SDS011;28839;52.404;9.808;2022-10-16T15:23:05;1.62;;;0.77;;
43226;SDS011;28839;52.404;9.808;2022-10-16T15:30:06;2.15;;;1.15;;
43226;SDS011;28839;52.404;9.808;2022-10-16T15:37:02;2.50;;;1.10;;
43226;SDS011;28839;52.404;9.808;2022-10-16T15:43:57;3.70;;;1.25;;
43226;SDS011;28839;52.404;9.808;2022-10-16T15:50:51;2.22;;;1.12;;
43226;SDS011;28839;52.404;9.808;2022-10-16T15:57:45;3.37;;;1.63;;
43226;SDS011;28839;52.404;9.808;2022-10-16T16:04:40;5.50;;;1.70;;
43226;SDS011;28839;52.404;9.808;2022-10-16T16:11:34;4.93;;;1.62;;
43226;SDS011;28839;52.404;9.808;2022-10-16T16:18:30;4.07;;;1.50;;
43226;SDS011;28839;52.404;9.808;2022-10-16T16:25:25;5.30;;;2.20;;
43226;SDS011;28839;52.404;9.808;2022-10-16T16:32:19;7.80;;;3.05;;
43226;SDS011;28839;52.404;9.808;2022-10-16T16:39:13;9.33;;;3.30;;
43226;SDS011;28839;52.404;9.808;2022-10-16T16:46:08;5.83;;;3.20;;
43226;SDS011;28839;52.404;9.808;2022-10-16T16:53:02;5.80;;;2.67;;
43226;SDS011;28839;52.404;9.808;2022-10-16T16:59:56;6.63;;;3.23;;
43226;SDS011;28839;52.404;9.808;2022-10-16T17:06:51;4.93;;;2.60;;
43226;SDS011;28839;52.404;9.808;2022-10-16T17:13:46;3.92;;;2.80;;
43226;SDS011;28839;52.404;9.808;2022-10-16T17:20:41;4.40;;;2.60;;
43226;SDS011;28839;52.404;9.808;2022-10-16T17:27:36;7.20;;;4.57;;
43226;SDS011;28839;52.404;9.808;2022-10-16T17:34:30;9.68;;;5.10;;
43226;SDS011;28839;52.404;9.808;2022-10-16T17:41:23;10.20;;;6.13;;
43226;SDS011;28839;52.404;9.808;2022-10-16T17:48:19;10.13;;;6.10;;
43226;SDS011;28839;52.404;9.808;2022-10-16T17:55:13;10.80;;;7.00;;
43226;SDS011;28839;52.404;9.808;2022-10-16T18:02:08;13.87;;;6.80;;
43226;SDS011;28839;52.404;9.808;2022-10-16T18:09:03;8.23;;;6.32;;
43226;SDS011;28839;52.404;9.808;2022-10-16T18:15:59;10.10;;;5.90;;
43226;SDS011;28839;52.404;9.808;2022-10-16T18:22:53;12.60;;;7.50;;
43226;SDS011;28839;52.404;9.808;2022-10-16T18:29:48;17.80;;;11.73;;
43226;SDS011;28839;52.404;9.808;2022-10-16T18:36:47;13.32;;;9.20;;
43226;SDS011;28839;52.404;9.808;2022-10-16T18:43:41;17.67;;;9.10;;
43226;SDS011;28839;52.404;9.808;2022-10-16T18:50:36;19.27;;;9.83;;
43226;SDS011;28839;52.404;9.808;2022-10-16T18:57:30;13.38;;;8.25;;
43226;SDS011;28839;52.404;9.808;2022-10-16T19:04:24;11.73;;;8.70;;
43226;SDS011;28839;52.404;9.808;2022-10-16T19:11:20;14.63;;;9.17;;
43226;SDS011;28839;52.404;9.808;2022-10-16T19:18:15;16.30;;;10.90;;
43226;SDS011;28839;52.404;9.808;2022-10-16T19:25:10;17.75;;;10.45;;
43226;SDS011;28839;52.404;9.808;2022-10-16T19:32:05;14.27;;;9.80;;
43226;SDS011;28839;52.404;9.808;2022-10-16T19:39:00;15.48;;;9.38;;
43226;SDS011;28839;52.404;9.808;2022-10-16T19:45:55;14.52;;;8.55;;
43226;SDS011;28839;52.404;9.808;2022-10-16T19:52:50;11.37;;;8.03;;
43226;SDS011;28839;52.404;9.808;2022-10-16T19:59:44;13.95;;;8.10;;
43226;SDS011;28839;52.404;9.808;2022-10-16T20:06:38;12.00;;;8.20;;
43226;SDS011;28839;52.404;9.808;2022-10-16T20:13:33;14.83;;;7.23;;
43226;SDS011;28839;52.404;9.808;2022-10-16T20:20:27;7.07;;;5.40;;
43226;SDS011;28839;52.404;9.808;2022-10-16T20:27:21;8.20;;;5.73;;
43226;SDS011;28839;52.404;9.808;2022-10-16T20:34:17;7.57;;;5.43;;
43226;SDS011;28839;52.404;9.808;2022-10-16T20:41:11;12.35;;;4.55;;
43226;SDS011;28839;52.404;9.808;2022-10-16T20:55:01;8.32;;;4.47;;
43226;SDS011;28839;52.404;9.808;2022-10-16T21:01:55;5.53;;;4.05;;
43226;SDS011;28839;52.404;9.808;2022-10-16T21:08:49;7.57;;;4.33;;
43226;SDS011;28839;52.404;9.808;2022-10-16T21:15:44;7.47;;;3.90;;
43226;SDS011;28839;52.404;9.808;2022-10-16T21:22:38;6.03;;;4.05;;
43226;SDS011;28839;52.404;9.808;2022-10-16T21:29:32;5.17;;;3.40;;
43226;SDS011;28839;52.404;9.808;2022-10-16T21:36:28;8.53;;;3.60;;
43226;SDS011;28839;52.404;9.808;2022-10-16T21:43:23;8.40;;;3.03;;
43226;SDS011;28839;52.404;9.808;2022-10-16T21:50:17;5.10;;;3.13;;
43226;SDS011;28839;52.404;9.808;2022-10-16T21:57:12;5.43;;;3.40;;
43226;SDS011;28839;52.404;9.808;2022-10-16T22:04:06;6.95;;;3.67;;
43226;SDS011;28839;52.404;9.808;2022-10-16T22:11:02;4.80;;;3.10;;
43226;SDS011;28839;52.404;9.808;2022-10-16T22:17:58;6.57;;;3.25;;
43226;SDS011;28839;52.404;9.808;2022-10-16T22:24:53;5.03;;;3.70;;
43226;SDS011;28839;52.404;9.808;2022-10-16T22:31:49;6.63;;;3.57;;
43226;SDS011;28839;52.404;9.808;2022-10-16T22:38:45;7.07;;;4.28;;
43226;SDS011;28839;52.404;9.808;2022-10-16T22:45:39;4.97;;;3.55;;
43226;SDS011;28839;52.404;9.808;2022-10-16T22:52:33;6.87;;;3.70;;
43226;SDS011;28839;52.404;9.808;2022-10-16T23:06:22;6.40;;;4.47;;
43226;SDS011;28839;52.404;9.808;2022-10-16T23:13:16;4.90;;;4.07;;
43226;SDS011;28839;52.404;9.808;2022-10-16T23:20:12;5.80;;;4.80;;
43226;SDS011;28839;52.404;9.808;2022-10-16T23:27:05;6.60;;;4.68;;
43226;SDS011;28839;52.404;9.808;2022-10-16T23:33:59;9.07;;;4.87;;
43226;SDS011;28839;52.404;9.808;2022-10-16T23:40:55;8.10;;;4.80;;
43226;SDS011;28839;52.404;9.808;2022-10-16T23:47:48;5.05;;;4.55;;
43226;SDS011;28839;52.404;9.808;2022-10-16T23:54:42;7.13;;;4.80;;
